Camden, Illinois
Current Conditions -  °F | °C
As of 3:35 AM on Thursday 27 Nov 2014 (Local Time) from KMQB Reporting Station
Haze Haze  
Wind Chill: 16°   Ceiling: 2600
Heat Index: 26°   Visibility: 5mi
Dew Point: 24°   Wind: 9mph
Humidity: 93%   Direction: 310°NW
Pressure: 30.37"   Gusts: NA
Location:  40.15°N, 90.77°W
Report Text: KMQB 270935Z AUTO 31008KT 5SM BR OVC026 M03/M04 A3037 RMK AO2 T10351045
Loading
Personal Weather Stations






























Interactive Weather Map New forecast layout! Learn more

10-Day Weather Forecast

Advertisements
Track Severe Weather on mobile